createdAt,value
2017-12-21T00:00:53.891Z,3.10
2017-12-21T00:03:22.202Z,3.10
2017-12-21T00:05:51.261Z,3.10
2017-12-21T00:08:19.091Z,3.10
2017-12-21T00:10:46.854Z,3.10
2017-12-21T00:13:14.608Z,3.10
2017-12-21T00:15:42.429Z,3.10
2017-12-21T00:18:10.248Z,3.10
2017-12-21T00:20:38.773Z,3.00
2017-12-21T00:23:06.553Z,3.00
2017-12-21T00:25:35.197Z,3.00
2017-12-21T00:28:03.707Z,3.10
2017-12-21T00:30:32.265Z,3.00
2017-12-21T00:33:00.071Z,3.10
2017-12-21T00:35:27.879Z,3.10
2017-12-21T00:37:56.474Z,3.10
2017-12-21T00:40:24.276Z,3.10
2017-12-21T00:42:52.075Z,3.10
2017-12-21T00:45:20.455Z,3.10
2017-12-21T00:47:48.323Z,3.10
2017-12-21T00:50:16.189Z,3.10
2017-12-21T00:52:43.936Z,3.10
2017-12-21T00:55:11.628Z,3.10
2017-12-21T00:57:40.274Z,3.10
2017-12-21T01:00:07.961Z,3.00
2017-12-21T01:02:35.781Z,3.10
2017-12-21T01:05:03.489Z,3.10
2017-12-21T01:07:31.248Z,3.20
2017-12-21T01:09:58.992Z,3.20
2017-12-21T01:12:26.795Z,3.20
2017-12-21T01:14:54.525Z,3.30
2017-12-21T01:17:22.301Z,3.30
2017-12-21T01:19:49.974Z,3.30
2017-12-21T01:22:17.733Z,3.30
2017-12-21T01:24:45.512Z,3.40
2017-12-21T01:27:13.195Z,3.40
2017-12-21T01:29:42.113Z,3.50
2017-12-21T01:32:09.810Z,3.40
2017-12-21T01:34:37.466Z,3.50
2017-12-21T01:37:05.129Z,3.50
2017-12-21T01:39:33.746Z,3.60
2017-12-21T01:42:02.248Z,3.70
2017-12-21T01:44:30.673Z,3.70
2017-12-21T01:46:58.359Z,3.70
2017-12-21T01:49:26.171Z,3.70
2017-12-21T01:51:54.689Z,3.70
2017-12-21T01:54:22.505Z,3.80
2017-12-21T01:56:50.993Z,3.90
2017-12-21T01:59:19.559Z,3.80
2017-12-21T02:01:48.201Z,4.00
2017-12-21T02:04:15.923Z,4.00
2017-12-21T02:06:43.757Z,4.00
2017-12-21T02:09:11.673Z,4.00
2017-12-21T02:11:39.426Z,4.00
2017-12-21T02:14:07.188Z,4.00
2017-12-21T02:16:34.981Z,4.00
2017-12-21T02:19:02.755Z,4.00
2017-12-21T02:21:30.451Z,4.10
2017-12-21T02:23:58.983Z,4.10
2017-12-21T02:26:26.824Z,4.00
2017-12-21T02:28:55.301Z,4.00
2017-12-21T02:31:23.796Z,3.90
2017-12-21T02:33:51.817Z,3.90
2017-12-21T02:36:19.533Z,3.90
2017-12-21T02:38:47.266Z,3.80
2017-12-21T02:41:14.937Z,3.80
2017-12-21T02:43:42.655Z,3.80
2017-12-21T02:46:10.415Z,3.70
2017-12-21T02:48:38.108Z,3.70
2017-12-21T02:51:06.969Z,3.70
2017-12-21T02:53:34.779Z,3.60
2017-12-21T02:56:02.561Z,3.60
2017-12-21T02:58:30.305Z,3.50
2017-12-21T03:00:58.885Z,3.50
2017-12-21T03:03:27.402Z,3.50
2017-12-21T03:05:55.119Z,3.40
2017-12-21T03:08:23.616Z,3.40
2017-12-21T03:10:52.183Z,3.40
2017-12-21T03:13:20.467Z,3.40
2017-12-21T03:15:49.346Z,3.40
2017-12-21T03:18:17.067Z,3.40
2017-12-21T03:20:44.871Z,3.40
2017-12-21T03:23:13.913Z,3.40
2017-12-21T03:25:41.668Z,3.40
2017-12-21T03:28:09.924Z,3.40
2017-12-21T03:30:37.776Z,3.40
2017-12-21T03:33:05.539Z,3.30
2017-12-21T03:35:34.113Z,3.30
2017-12-21T03:38:01.835Z,3.30
2017-12-21T03:40:29.867Z,3.30
2017-12-21T03:42:58.193Z,3.30
2017-12-21T03:45:25.915Z,3.20
2017-12-21T03:47:54.782Z,3.30
2017-12-21T03:50:22.523Z,3.20
2017-12-21T03:52:50.279Z,3.30
2017-12-21T03:55:17.967Z,3.30
2017-12-21T03:57:45.717Z,3.30
2017-12-21T04:00:13.423Z,3.30
2017-12-21T04:02:41.959Z,3.20
2017-12-21T04:05:09.861Z,3.20
2017-12-21T04:07:37.704Z,3.20
2017-12-21T04:10:05.379Z,3.10
2017-12-21T04:12:33.293Z,3.10
2017-12-21T04:15:01.013Z,3.00
2017-12-21T04:17:28.762Z,3.00
2017-12-21T04:19:56.524Z,3.00
2017-12-21T04:22:24.238Z,3.00
2017-12-21T04:24:51.979Z,2.90
2017-12-21T04:27:20.923Z,2.90
2017-12-21T04:29:48.625Z,2.90
2017-12-21T04:32:17.130Z,2.90
2017-12-21T04:34:44.992Z,2.80
2017-12-21T04:37:12.745Z,2.90
2017-12-21T04:39:40.609Z,2.80
2017-12-21T04:42:08.343Z,2.90
2017-12-21T04:44:36.103Z,3.00
2017-12-21T04:47:04.527Z,3.00
2017-12-21T04:49:32.375Z,3.10
2017-12-21T04:52:00.080Z,3.10
2017-12-21T04:54:27.875Z,3.10
2017-12-21T04:56:55.741Z,3.10
2017-12-21T04:59:23.471Z,3.10
2017-12-21T05:01:52.327Z,3.10
2017-12-21T05:04:21.098Z,3.10
2017-12-21T05:06:48.835Z,3.20
2017-12-21T05:09:16.608Z,3.20
2017-12-21T05:11:45.246Z,3.20
2017-12-21T05:14:13.737Z,3.30
2017-12-21T05:16:41.534Z,3.20
2017-12-21T05:19:10.089Z,3.40
2017-12-21T05:21:38.753Z,3.40
2017-12-21T05:24:07.303Z,3.70
2017-12-21T05:26:35.956Z,3.70
2017-12-21T05:29:03.725Z,3.70
2017-12-21T05:31:31.445Z,3.70
2017-12-21T05:33:59.945Z,3.80
2017-12-21T05:36:28.443Z,3.80
2017-12-21T05:38:56.123Z,3.80
2017-12-21T05:41:23.898Z,3.80
2017-12-21T05:43:51.785Z,3.90
2017-12-21T05:46:19.499Z,3.90
2017-12-21T05:48:47.249Z,4.00
2017-12-21T05:51:15.047Z,4.00
2017-12-21T05:53:42.784Z,4.10
2017-12-21T05:56:10.997Z,4.10
2017-12-21T05:58:38.795Z,4.10
2017-12-21T06:01:07.303Z,4.20
2017-12-21T06:03:35.983Z,4.20
2017-12-21T06:06:04.569Z,4.20
2017-12-21T06:08:32.332Z,4.20
2017-12-21T06:11:00.123Z,4.20
2017-12-21T06:13:28.678Z,4.30
2017-12-21T06:15:56.417Z,4.20
2017-12-21T06:18:24.219Z,4.20
2017-12-21T06:20:52.021Z,4.20
2017-12-21T06:23:20.501Z,4.10
2017-12-21T06:25:48.343Z,4.10
2017-12-21T06:28:16.071Z,4.20
2017-12-21T06:30:43.783Z,4.20
2017-12-21T06:33:11.555Z,4.10
2017-12-21T06:35:39.334Z,4.10
2017-12-21T06:38:07.157Z,4.10
2017-12-21T06:40:34.974Z,4.20
2017-12-21T06:43:02.687Z,4.20
2017-12-21T06:45:30.475Z,4.20
2017-12-21T06:47:59.253Z,4.20
2017-12-21T06:50:26.977Z,4.20
2017-12-21T06:52:55.636Z,4.30
2017-12-21T06:55:24.843Z,4.20
2017-12-21T06:57:52.583Z,4.30
2017-12-21T07:00:21.128Z,4.30
2017-12-21T07:02:48.950Z,4.30
2017-12-21T07:05:16.761Z,4.30
2017-12-21T07:07:44.508Z,4.40
2017-12-21T07:10:13.041Z,4.50
2017-12-21T07:12:40.825Z,4.50
2017-12-21T07:15:09.571Z,4.60
2017-12-21T07:17:38.427Z,4.60
2017-12-21T07:20:06.924Z,4.70
2017-12-21T07:22:34.693Z,4.70
2017-12-21T07:25:02.481Z,4.80
2017-12-21T07:27:30.232Z,4.80
2017-12-21T07:29:58.503Z,4.80
2017-12-21T07:32:26.287Z,4.70
2017-12-21T07:34:54.034Z,4.80
2017-12-21T07:37:21.803Z,4.80
2017-12-21T07:39:49.537Z,4.90
2017-12-21T07:42:18.045Z,5.00
2017-12-21T07:44:45.835Z,4.90
2017-12-21T07:47:14.235Z,5.00
2017-12-21T07:49:42.747Z,5.00
2017-12-21T07:52:10.543Z,5.00
2017-12-21T07:54:38.328Z,5.00
2017-12-21T07:57:06.067Z,5.10
2017-12-21T07:59:33.837Z,5.00
2017-12-21T08:02:01.613Z,5.10
2017-12-21T08:04:29.375Z,5.10
2017-12-21T08:06:57.095Z,5.10
2017-12-21T08:09:24.817Z,5.10
2017-12-21T08:11:53.273Z,5.20
2017-12-21T08:14:21.793Z,5.30
2017-12-21T08:16:49.472Z,5.20
2017-12-21T08:19:17.971Z,5.40
2017-12-21T08:21:45.784Z,5.30
2017-12-21T08:24:13.599Z,5.40
2017-12-21T08:26:42.069Z,5.50
2017-12-21T08:29:10.648Z,5.50
2017-12-21T08:31:39.236Z,5.60
2017-12-21T08:34:07.060Z,5.50
2017-12-21T08:36:34.837Z,5.60
2017-12-21T08:39:02.716Z,5.60
2017-12-21T08:41:31.283Z,5.60
2017-12-21T08:43:59.006Z,5.70
2017-12-21T08:46:27.335Z,5.70
2017-12-21T08:48:55.129Z,5.70
2017-12-21T08:51:23.694Z,5.80
2017-12-21T08:53:51.396Z,5.70
2017-12-21T08:56:19.144Z,5.80
2017-12-21T08:58:47.733Z,5.80
2017-12-21T09:01:15.623Z,5.80
2017-12-21T09:03:43.381Z,5.80
2017-12-21T09:06:11.213Z,5.90
2017-12-21T09:08:39.087Z,5.80
2017-12-21T09:11:06.833Z,5.80
2017-12-21T09:13:34.588Z,5.80
2017-12-21T09:16:02.430Z,5.80
2017-12-21T09:18:30.178Z,5.70
2017-12-21T09:20:57.928Z,5.60
2017-12-21T09:23:25.654Z,5.60
2017-12-21T09:25:54.142Z,5.60
2017-12-21T09:28:22.692Z,5.60
2017-12-21T09:30:50.459Z,5.60
2017-12-21T09:33:18.239Z,5.60
2017-12-21T09:35:46.051Z,5.60
2017-12-21T09:38:13.874Z,5.50
2017-12-21T09:40:41.625Z,5.60
2017-12-21T09:43:10.205Z,5.50
2017-12-21T09:45:37.983Z,5.40
2017-12-21T09:48:06.232Z,5.40
2017-12-21T09:50:34.838Z,5.30
2017-12-21T09:53:02.564Z,5.30
2017-12-21T09:55:30.318Z,5.20
2017-12-21T09:57:58.237Z,5.20
2017-12-21T10:00:25.967Z,5.20
2017-12-21T10:02:53.801Z,5.20
2017-12-21T10:05:21.605Z,5.20
2017-12-21T10:07:49.686Z,5.20
2017-12-21T10:10:17.436Z,5.20
2017-12-21T10:12:45.184Z,5.20
2017-12-21T10:15:13.081Z,5.10
2017-12-21T10:17:40.822Z,5.10
2017-12-21T10:20:09.377Z,5.10
2017-12-21T10:22:37.974Z,5.00
2017-12-21T10:25:05.797Z,5.00
2017-12-21T10:27:33.529Z,5.10
2017-12-21T10:30:01.266Z,5.00
2017-12-21T10:32:29.050Z,5.10
2017-12-21T10:34:57.004Z,5.10
2017-12-21T10:37:24.707Z,5.20
2017-12-21T10:39:52.506Z,5.20
2017-12-21T10:42:21.073Z,5.30
2017-12-21T10:44:50.003Z,5.30
2017-12-21T10:47:18.748Z,5.40
2017-12-21T10:49:46.446Z,5.40
2017-12-21T10:52:14.205Z,5.40
2017-12-21T10:54:41.895Z,5.40
2017-12-21T10:57:10.433Z,5.50
2017-12-21T10:59:39.046Z,5.40
2017-12-21T11:02:06.800Z,5.50
2017-12-21T11:04:34.567Z,5.40
2017-12-21T11:07:02.410Z,5.40
2017-12-21T11:09:30.119Z,5.40
2017-12-21T11:11:57.854Z,5.40
2017-12-21T11:14:26.362Z,5.40
2017-12-21T11:16:54.071Z,5.40
2017-12-21T11:19:22.007Z,5.50
2017-12-21T11:21:49.761Z,5.50
2017-12-21T11:24:17.553Z,5.50
2017-12-21T11:26:45.298Z,5.50
2017-12-21T11:29:13.072Z,5.50
2017-12-21T11:31:40.801Z,5.50
2017-12-21T11:34:08.762Z,5.60
2017-12-21T11:36:36.579Z,5.60
2017-12-21T11:39:04.312Z,5.70
2017-12-21T11:41:32.873Z,5.70
2017-12-21T11:44:01.836Z,5.80
2017-12-21T11:46:29.560Z,5.80
2017-12-21T11:48:57.859Z,5.90
2017-12-21T11:51:25.557Z,5.90
2017-12-21T11:53:54.232Z,5.90
2017-12-21T11:56:22.029Z,5.80
2017-12-21T11:58:49.738Z,5.90
2017-12-21T12:01:17.603Z,5.90
2017-12-21T12:03:45.353Z,6.00
2017-12-21T12:06:13.103Z,6.10
2017-12-21T12:08:40.773Z,6.10
2017-12-21T12:11:08.689Z,6.20
2017-12-21T12:13:36.462Z,6.20
2017-12-21T12:16:05.084Z,6.20
2017-12-21T12:18:32.836Z,6.10
2017-12-21T12:21:00.578Z,6.20
2017-12-21T12:23:29.214Z,6.30
2017-12-21T12:25:58.329Z,6.30
2017-12-21T12:28:26.106Z,6.20
2017-12-21T12:30:53.992Z,6.30
2017-12-21T12:33:21.954Z,6.40
2017-12-21T12:35:50.409Z,6.40
2017-12-21T12:38:19.413Z,6.40
2017-12-21T12:40:48.007Z,6.50
2017-12-21T12:43:17.401Z,6.50
2017-12-21T12:45:45.452Z,6.40
2017-12-21T12:48:13.207Z,6.50
2017-12-21T12:50:41.164Z,6.50
2017-12-21T12:53:08.867Z,6.50
2017-12-21T12:55:37.762Z,6.50
2017-12-21T12:58:05.458Z,6.50
2017-12-21T13:00:33.238Z,6.50
2017-12-21T13:03:01.640Z,6.50
2017-12-21T13:05:30.225Z,6.60
2017-12-21T13:07:58.087Z,6.50
2017-12-21T13:10:26.093Z,6.60
2017-12-21T13:12:53.944Z,6.60
2017-12-21T13:15:21.824Z,6.60
2017-12-21T13:17:50.296Z,6.80
2017-12-21T13:20:18.054Z,6.70
2017-12-21T13:22:45.776Z,6.70
2017-12-21T13:25:13.932Z,6.70
2017-12-21T13:27:41.676Z,6.60
2017-12-21T13:30:10.140Z,5.90
2017-12-21T13:32:38.646Z,5.60
2017-12-21T13:35:07.220Z,5.50
2017-12-21T13:37:35.698Z,5.40
2017-12-21T13:40:03.571Z,5.30
2017-12-21T13:42:32.748Z,5.20
2017-12-21T13:45:01.655Z,5.20
2017-12-21T13:47:29.375Z,5.20
2017-12-21T13:49:57.129Z,5.20
2017-12-21T13:52:25.275Z,5.20
2017-12-21T13:54:53.017Z,5.20
2017-12-21T13:57:20.741Z,5.20
2017-12-21T13:59:48.502Z,5.20
2017-12-21T14:02:17.074Z,5.30
2017-12-21T14:04:44.825Z,5.30
2017-12-21T14:07:12.589Z,5.30
2017-12-21T14:09:41.180Z,5.40
2017-12-21T14:12:08.878Z,5.40
2017-12-21T14:14:36.718Z,5.40
2017-12-21T14:17:04.469Z,5.50
2017-12-21T14:19:33.001Z,5.50
2017-12-21T14:22:00.713Z,5.50
2017-12-21T14:24:29.032Z,5.50
2017-12-21T14:26:56.743Z,5.50
2017-12-21T14:29:24.426Z,5.50
2017-12-21T14:31:52.143Z,5.50
2017-12-21T14:34:20.569Z,5.50
2017-12-21T14:36:48.354Z,5.40
2017-12-21T14:39:16.046Z,5.50
2017-12-21T14:41:44.486Z,5.50
2017-12-21T14:44:12.164Z,5.50
2017-12-21T14:46:39.889Z,5.50
2017-12-21T14:49:07.722Z,5.50
2017-12-21T14:51:35.476Z,5.60
2017-12-21T14:54:05.016Z,5.60
2017-12-21T14:56:33.474Z,5.60
2017-12-21T14:59:02.027Z,5.60
2017-12-21T15:01:29.785Z,5.50
2017-12-21T15:03:57.592Z,5.60
2017-12-21T15:06:25.410Z,5.50
2017-12-21T15:08:53.443Z,5.50
2017-12-21T15:11:21.118Z,5.40
2017-12-21T15:13:48.891Z,5.40
2017-12-21T15:16:17.438Z,5.30
2017-12-21T15:18:45.137Z,5.30
2017-12-21T15:21:12.920Z,5.30
2017-12-21T15:23:40.696Z,5.30
2017-12-21T15:26:08.479Z,5.30
2017-12-21T15:28:39.078Z,5.30
2017-12-21T15:31:07.038Z,5.20
2017-12-21T15:33:34.764Z,5.30
2017-12-21T15:36:02.601Z,5.20
2017-12-21T15:38:31.130Z,5.20
2017-12-21T15:40:58.850Z,5.20
2017-12-21T15:43:26.610Z,5.20
2017-12-21T15:45:54.428Z,5.20
2017-12-21T15:48:22.199Z,5.30
2017-12-21T15:50:49.960Z,5.30
2017-12-21T15:53:17.852Z,5.20
2017-12-21T15:55:46.050Z,5.20
2017-12-21T15:58:13.877Z,5.20
2017-12-21T16:00:41.602Z,5.20
2017-12-21T16:03:09.327Z,5.20
2017-12-21T16:05:37.058Z,5.20
2017-12-21T16:08:05.632Z,5.30
2017-12-21T16:10:33.328Z,5.30
2017-12-21T16:13:01.090Z,5.30
2017-12-21T16:15:28.928Z,5.30
2017-12-21T16:17:56.602Z,5.40
2017-12-21T16:20:24.394Z,5.40
2017-12-21T16:22:52.146Z,5.40
2017-12-21T16:25:19.973Z,5.40
2017-12-21T16:27:47.662Z,5.40
2017-12-21T16:30:16.559Z,5.40
2017-12-21T16:32:44.274Z,5.40
2017-12-21T16:35:12.767Z,5.40
2017-12-21T16:37:40.496Z,5.30
2017-12-21T16:40:08.202Z,5.40
2017-12-21T16:42:35.958Z,5.30
2017-12-21T16:45:03.742Z,5.40
2017-12-21T16:47:31.476Z,5.30
2017-12-21T16:49:59.993Z,5.30
2017-12-21T16:52:28.636Z,5.30
2017-12-21T16:54:57.250Z,5.30
2017-12-21T16:57:25.540Z,5.20
2017-12-21T16:59:53.306Z,5.20
2017-12-21T17:02:21.028Z,5.20
2017-12-21T17:04:49.504Z,5.20
2017-12-21T17:07:18.156Z,5.20
2017-12-21T17:09:45.898Z,5.20
2017-12-21T17:12:13.698Z,5.20
2017-12-21T17:14:41.820Z,5.20
2017-12-21T17:17:09.566Z,5.20
2017-12-21T17:19:38.055Z,5.20
2017-12-21T17:22:05.768Z,5.10
2017-12-21T17:24:33.594Z,5.20
2017-12-21T17:27:01.388Z,5.20
2017-12-21T17:29:29.914Z,5.20
2017-12-21T17:31:58.398Z,5.20
2017-12-21T17:34:26.922Z,5.20
2017-12-21T17:36:54.672Z,5.10
2017-12-21T17:39:22.514Z,5.20
2017-12-21T17:41:51.054Z,5.10
2017-12-21T17:44:19.526Z,5.10
2017-12-21T17:46:48.049Z,5.10
2017-12-21T17:49:16.598Z,5.10
2017-12-21T17:51:44.368Z,5.00
2017-12-21T17:54:12.858Z,5.10
2017-12-21T17:56:40.622Z,5.10
2017-12-21T17:59:09.194Z,5.10
2017-12-21T18:01:37.010Z,5.10
2017-12-21T18:04:04.820Z,5.10
2017-12-21T18:06:33.831Z,5.10
2017-12-21T18:09:01.582Z,5.10
2017-12-21T18:11:30.260Z,5.10
2017-12-21T18:13:58.049Z,5.00
2017-12-21T18:16:26.573Z,5.00
2017-12-21T18:18:54.334Z,5.00
2017-12-21T18:21:22.086Z,5.00
2017-12-21T18:23:49.853Z,5.00
2017-12-21T18:26:18.514Z,5.00
2017-12-21T18:28:46.762Z,4.90
2017-12-21T18:31:14.447Z,4.90
2017-12-21T18:33:42.220Z,4.90
2017-12-21T18:36:11.373Z,4.90
2017-12-21T18:38:39.188Z,4.80
2017-12-21T18:41:07.846Z,4.90
2017-12-21T18:43:35.616Z,4.80
2017-12-21T18:46:03.934Z,4.90
2017-12-21T18:48:31.670Z,4.90
2017-12-21T18:50:59.457Z,4.90
2017-12-21T18:53:27.382Z,4.90
2017-12-21T18:55:55.124Z,5.00
2017-12-21T18:58:22.912Z,5.00
2017-12-21T19:00:51.379Z,4.90
2017-12-21T19:03:20.295Z,5.00
2017-12-21T19:05:48.463Z,4.90
2017-12-21T19:08:16.328Z,5.00
2017-12-21T19:10:44.092Z,5.00
2017-12-21T19:13:11.850Z,5.00
2017-12-21T19:15:39.604Z,5.00
2017-12-21T19:18:07.468Z,5.00
2017-12-21T19:20:35.226Z,5.00
2017-12-21T19:23:03.002Z,5.00
2017-12-21T19:25:30.744Z,5.00
2017-12-21T19:27:58.522Z,5.00
2017-12-21T19:30:26.343Z,5.00
2017-12-21T19:32:54.888Z,5.00
2017-12-21T19:35:22.626Z,4.90
2017-12-21T19:37:50.572Z,4.90
2017-12-21T19:40:18.292Z,5.00
2017-12-21T19:42:46.010Z,5.00
2017-12-21T19:45:13.758Z,5.00
2017-12-21T19:47:41.564Z,4.90
2017-12-21T19:50:09.358Z,4.90
2017-12-21T19:52:37.196Z,4.90
2017-12-21T19:55:06.820Z,4.90
2017-12-21T19:57:36.690Z,4.80
2017-12-21T20:00:05.374Z,4.90
2017-12-21T20:02:33.130Z,4.90
2017-12-21T20:05:00.916Z,4.90
2017-12-21T20:07:28.648Z,4.90
2017-12-21T20:09:56.379Z,4.90
2017-12-21T20:12:24.576Z,4.90
2017-12-21T20:14:53.078Z,4.90
2017-12-21T20:17:20.822Z,4.90
2017-12-21T20:19:49.341Z,4.90
2017-12-21T20:22:17.130Z,4.90
2017-12-21T20:24:44.878Z,4.90
2017-12-21T20:27:12.661Z,5.00
2017-12-21T20:29:40.406Z,5.00
2017-12-21T20:32:08.175Z,5.00
2017-12-21T20:34:35.914Z,5.00
2017-12-21T20:37:03.774Z,5.00
2017-12-21T20:39:31.768Z,5.00
2017-12-21T20:41:59.514Z,4.90
2017-12-21T20:44:27.416Z,4.90
2017-12-21T20:46:55.203Z,4.90
2017-12-21T20:49:23.158Z,4.90
2017-12-21T20:51:52.110Z,4.90
2017-12-21T20:54:19.942Z,4.90
2017-12-21T20:56:48.508Z,5.00
2017-12-21T20:59:16.274Z,4.90
2017-12-21T21:01:44.078Z,5.00
2017-12-21T21:04:11.843Z,5.00
2017-12-21T21:06:39.582Z,5.10
2017-12-21T21:09:08.154Z,5.10
2017-12-21T21:11:35.967Z,5.10
2017-12-21T21:14:03.840Z,5.10
2017-12-21T21:16:31.662Z,5.00
2017-12-21T21:18:59.704Z,5.00
2017-12-21T21:21:27.422Z,5.10
2017-12-21T21:23:55.194Z,5.10
2017-12-21T21:26:22.978Z,5.10
2017-12-21T21:28:50.790Z,5.10
2017-12-21T21:31:18.566Z,5.00
2017-12-21T21:33:46.362Z,5.00
2017-12-21T21:36:15.012Z,5.00
2017-12-21T21:38:43.481Z,5.00
2017-12-21T21:41:12.052Z,5.00
2017-12-21T21:43:41.695Z,4.90
2017-12-21T21:46:10.566Z,5.00
2017-12-21T21:48:39.668Z,5.00
2017-12-21T21:51:07.520Z,5.00
2017-12-21T21:53:35.267Z,5.10
2017-12-21T21:56:03.232Z,5.10
2017-12-21T21:58:30.998Z,5.00
2017-12-21T22:00:58.734Z,4.90
2017-12-21T22:03:26.450Z,4.90
2017-12-21T22:05:54.240Z,4.90
2017-12-21T22:08:22.115Z,4.90
2017-12-21T22:10:50.742Z,4.90
2017-12-21T22:13:18.566Z,4.80
2017-12-21T22:15:46.254Z,4.80
2017-12-21T22:18:15.622Z,4.90
2017-12-21T22:20:43.398Z,4.80
2017-12-21T22:23:11.164Z,4.90
2017-12-21T22:25:39.470Z,4.90
2017-12-21T22:28:08.394Z,4.90
2017-12-21T22:30:36.276Z,4.90
2017-12-21T22:33:05.368Z,4.90
2017-12-21T22:35:33.269Z,4.90
2017-12-21T22:38:01.000Z,5.00
2017-12-21T22:40:30.716Z,5.00
2017-12-21T22:42:59.244Z,4.90
2017-12-21T22:45:27.148Z,4.90
2017-12-21T22:47:54.944Z,5.00
2017-12-21T22:50:22.814Z,5.00
2017-12-21T22:52:50.535Z,5.00
2017-12-21T22:55:19.204Z,4.90
2017-12-21T22:57:46.915Z,5.00
2017-12-21T23:00:25.254Z,5.00
2017-12-21T23:02:54.272Z,5.00
2017-12-21T23:05:22.047Z,5.00
2017-12-21T23:07:49.948Z,5.00
2017-12-21T23:10:18.636Z,4.90
2017-12-21T23:12:47.084Z,4.90
2017-12-21T23:15:15.526Z,4.90
2017-12-21T23:17:43.332Z,4.90
2017-12-21T23:20:11.126Z,4.80
2017-12-21T23:22:40.134Z,4.80
2017-12-21T23:25:07.919Z,4.70
2017-12-21T23:27:35.793Z,4.70
2017-12-21T23:30:03.552Z,4.70
2017-12-21T23:32:31.331Z,4.70
2017-12-21T23:34:59.028Z,4.70
2017-12-21T23:37:26.784Z,4.70
2017-12-21T23:39:54.668Z,4.70
2017-12-21T23:42:23.291Z,4.80
2017-12-21T23:44:51.313Z,4.80
2017-12-21T23:47:19.042Z,4.90
2017-12-21T23:49:46.815Z,4.80
2017-12-21T23:52:14.518Z,4.80
2017-12-21T23:54:42.362Z,4.90
2017-12-21T23:57:10.130Z,4.90
2017-12-21T23:59:37.886Z,4.90
